sensor_id;sensor_type;location;lat;lon;timestamp;P1;durP1;ratioP1;P2;durP2;ratioP2
52072;SDS011;38074;51.232;6.826;2023-03-21T00:07:01;2.80;;;0.80;;
52072;SDS011;38074;51.232;6.826;2023-03-21T00:14:17;2.28;;;0.60;;
52072;SDS011;38074;51.232;6.826;2023-03-21T00:21:34;2.90;;;0.70;;
52072;SDS011;38074;51.232;6.826;2023-03-21T00:28:52;2.35;;;0.80;;
52072;SDS011;38074;51.232;6.826;2023-03-21T00:36:08;1.57;;;0.40;;
52072;SDS011;38074;51.232;6.826;2023-03-21T00:43:24;1.42;;;0.50;;
52072;SDS011;38074;51.232;6.826;2023-03-21T00:50:44;1.50;;;0.50;;
52072;SDS011;38074;51.232;6.826;2023-03-21T00:58:03;2.58;;;0.57;;
52072;SDS011;38074;51.232;6.826;2023-03-21T01:05:24;2.00;;;0.60;;
52072;SDS011;38074;51.232;6.826;2023-03-21T01:12:59;2.38;;;0.60;;
52072;SDS011;38074;51.232;6.826;2023-03-21T01:20:15;2.00;;;0.60;;
52072;SDS011;38074;51.232;6.826;2023-03-21T01:27:30;0.60;;;0.32;;
52072;SDS011;38074;51.232;6.826;2023-03-21T01:34:46;1.93;;;0.40;;
52072;SDS011;38074;51.232;6.826;2023-03-21T01:42:01;1.83;;;0.50;;
52072;SDS011;38074;51.232;6.826;2023-03-21T01:49:28;1.20;;;0.60;;
52072;SDS011;38074;51.232;6.826;2023-03-21T01:56:48;1.25;;;0.32;;
52072;SDS011;38074;51.232;6.826;2023-03-21T02:04:04;0.80;;;0.35;;
52072;SDS011;38074;51.232;6.826;2023-03-21T02:11:22;0.68;;;0.40;;
52072;SDS011;38074;51.232;6.826;2023-03-21T02:26:05;0.82;;;0.30;;
52072;SDS011;38074;51.232;6.826;2023-03-21T02:41:39;1.05;;;0.40;;
52072;SDS011;38074;51.232;6.826;2023-03-21T02:56:43;1.02;;;0.40;;
52072;SDS011;38074;51.232;6.826;2023-03-21T03:04:00;2.22;;;0.40;;
52072;SDS011;38074;51.232;6.826;2023-03-21T03:33:54;0.90;;;0.40;;
52072;SDS011;38074;51.232;6.826;2023-03-21T03:41:14;0.45;;;0.40;;
52072;SDS011;38074;51.232;6.826;2023-03-21T03:48:34;1.50;;;0.50;;
52072;SDS011;38074;51.232;6.826;2023-03-21T03:56:00;2.15;;;0.50;;
52072;SDS011;38074;51.232;6.826;2023-03-21T04:03:17;1.63;;;0.50;;
52072;SDS011;38074;51.232;6.826;2023-03-21T04:10:33;2.10;;;0.57;;
52072;SDS011;38074;51.232;6.826;2023-03-21T04:17:49;1.23;;;0.30;;
52072;SDS011;38074;51.232;6.826;2023-03-21T04:25:05;1.37;;;0.43;;
52072;SDS011;38074;51.232;6.826;2023-03-21T04:32:21;2.40;;;0.60;;
52072;SDS011;38074;51.232;6.826;2023-03-21T04:39:39;0.90;;;0.30;;
52072;SDS011;38074;51.232;6.826;2023-03-21T04:46:55;0.68;;;0.38;;
52072;SDS011;38074;51.232;6.826;2023-03-21T04:54:10;0.80;;;0.30;;
52072;SDS011;38074;51.232;6.826;2023-03-21T05:01:27;2.40;;;0.33;;
52072;SDS011;38074;51.232;6.826;2023-03-21T05:08:45;1.02;;;0.40;;
52072;SDS011;38074;51.232;6.826;2023-03-21T05:16:02;0.70;;;0.47;;
52072;SDS011;38074;51.232;6.826;2023-03-21T05:23:18;0.90;;;0.38;;
52072;SDS011;38074;51.232;6.826;2023-03-21T05:30:35;0.55;;;0.30;;
52072;SDS011;38074;51.232;6.826;2023-03-21T05:37:50;1.97;;;0.40;;
52072;SDS011;38074;51.232;6.826;2023-03-21T05:45:07;1.20;;;0.47;;
52072;SDS011;38074;51.232;6.826;2023-03-21T05:52:23;1.25;;;0.40;;
52072;SDS011;38074;51.232;6.826;2023-03-21T05:59:38;1.02;;;0.28;;
52072;SDS011;38074;51.232;6.826;2023-03-21T06:06:54;0.70;;;0.40;;
52072;SDS011;38074;51.232;6.826;2023-03-21T06:14:10;1.67;;;0.52;;
52072;SDS011;38074;51.232;6.826;2023-03-21T06:21:25;2.70;;;0.47;;
52072;SDS011;38074;51.232;6.826;2023-03-21T06:28:40;3.73;;;0.70;;
52072;SDS011;38074;51.232;6.826;2023-03-21T06:35:56;3.03;;;0.90;;
52072;SDS011;38074;51.232;6.826;2023-03-21T06:43:13;8.55;;;1.70;;
52072;SDS011;38074;51.232;6.826;2023-03-21T06:57:45;7.47;;;1.53;;
52072;SDS011;38074;51.232;6.826;2023-03-21T07:05:01;2.43;;;0.80;;
52072;SDS011;38074;51.232;6.826;2023-03-21T07:12:17;9.15;;;1.35;;
52072;SDS011;38074;51.232;6.826;2023-03-21T07:19:32;14.80;;;2.15;;
52072;SDS011;38074;51.232;6.826;2023-03-21T07:26:48;10.83;;;1.80;;
52072;SDS011;38074;51.232;6.826;2023-03-21T07:34:03;9.43;;;2.47;;
52072;SDS011;38074;51.232;6.826;2023-03-21T07:41:19;11.80;;;2.88;;
52072;SDS011;38074;51.232;6.826;2023-03-21T07:48:35;8.17;;;2.47;;
52072;SDS011;38074;51.232;6.826;2023-03-21T07:55:52;16.47;;;3.37;;
52072;SDS011;38074;51.232;6.826;2023-03-21T08:03:10;9.27;;;2.60;;
52072;SDS011;38074;51.232;6.826;2023-03-21T08:10:27;12.57;;;2.70;;
52072;SDS011;38074;51.232;6.826;2023-03-21T08:17:42;8.65;;;2.60;;
52072;SDS011;38074;51.232;6.826;2023-03-21T08:25:04;9.80;;;2.40;;
52072;SDS011;38074;51.232;6.826;2023-03-21T08:32:22;7.95;;;2.22;;
52072;SDS011;38074;51.232;6.826;2023-03-21T08:39:43;7.38;;;2.28;;
52072;SDS011;38074;51.232;6.826;2023-03-21T08:46:59;7.35;;;2.45;;
52072;SDS011;38074;51.232;6.826;2023-03-21T08:54:17;8.85;;;2.70;;
52072;SDS011;38074;51.232;6.826;2023-03-21T09:01:34;14.77;;;3.00;;
52072;SDS011;38074;51.232;6.826;2023-03-21T09:08:50;15.43;;;3.50;;
52072;SDS011;38074;51.232;6.826;2023-03-21T09:16:07;11.03;;;2.80;;
52072;SDS011;38074;51.232;6.826;2023-03-21T09:23:23;13.20;;;2.85;;
52072;SDS011;38074;51.232;6.826;2023-03-21T09:30:39;10.90;;;3.28;;
52072;SDS011;38074;51.232;6.826;2023-03-21T09:37:55;8.23;;;2.20;;
52072;SDS011;38074;51.232;6.826;2023-03-21T09:45:20;9.07;;;2.85;;
52072;SDS011;38074;51.232;6.826;2023-03-21T10:00:16;4.57;;;2.00;;
52072;SDS011;38074;51.232;6.826;2023-03-21T10:07:40;6.70;;;2.10;;
52072;SDS011;38074;51.232;6.826;2023-03-21T10:15:01;6.10;;;2.00;;
52072;SDS011;38074;51.232;6.826;2023-03-21T10:22:19;5.07;;;1.80;;
52072;SDS011;38074;51.232;6.826;2023-03-21T10:29:41;4.03;;;1.67;;
52072;SDS011;38074;51.232;6.826;2023-03-21T10:36:58;4.78;;;1.75;;
52072;SDS011;38074;51.232;6.826;2023-03-21T10:44:16;7.88;;;1.90;;
52072;SDS011;38074;51.232;6.826;2023-03-21T10:58:50;5.50;;;2.07;;
52072;SDS011;38074;51.232;6.826;2023-03-21T11:13:41;5.85;;;1.88;;
52072;SDS011;38074;51.232;6.826;2023-03-21T11:21:02;4.60;;;1.65;;
52072;SDS011;38074;51.232;6.826;2023-03-21T11:28:21;3.95;;;1.17;;
52072;SDS011;38074;51.232;6.826;2023-03-21T11:35:39;4.13;;;1.63;;
52072;SDS011;38074;51.232;6.826;2023-03-21T11:42:55;4.45;;;1.27;;
52072;SDS011;38074;51.232;6.826;2023-03-21T11:50:16;2.78;;;0.88;;
52072;SDS011;38074;51.232;6.826;2023-03-21T11:57:54;3.20;;;0.93;;
52072;SDS011;38074;51.232;6.826;2023-03-21T12:05:19;5.65;;;1.17;;
52072;SDS011;38074;51.232;6.826;2023-03-21T12:20:29;3.35;;;1.20;;
52072;SDS011;38074;51.232;6.826;2023-03-21T12:35:58;3.42;;;0.85;;
52072;SDS011;38074;51.232;6.826;2023-03-21T12:50:40;2.08;;;0.70;;
52072;SDS011;38074;51.232;6.826;2023-03-21T12:58:00;2.17;;;0.77;;
52072;SDS011;38074;51.232;6.826;2023-03-21T13:05:34;2.17;;;1.00;;
52072;SDS011;38074;51.232;6.826;2023-03-21T13:20:55;1.85;;;0.47;;
52072;SDS011;38074;51.232;6.826;2023-03-21T13:28:22;3.33;;;0.85;;
52072;SDS011;38074;51.232;6.826;2023-03-21T13:35:44;2.20;;;0.80;;
52072;SDS011;38074;51.232;6.826;2023-03-21T13:43:39;1.55;;;0.40;;
52072;SDS011;38074;51.232;6.826;2023-03-21T13:50:59;1.15;;;0.45;;
52072;SDS011;38074;51.232;6.826;2023-03-21T13:58:23;1.58;;;0.50;;
52072;SDS011;38074;51.232;6.826;2023-03-21T14:05:51;1.65;;;0.50;;
52072;SDS011;38074;51.232;6.826;2023-03-21T14:13:07;3.22;;;0.68;;
52072;SDS011;38074;51.232;6.826;2023-03-21T14:20:31;1.60;;;0.40;;
52072;SDS011;38074;51.232;6.826;2023-03-21T14:27:54;1.33;;;0.55;;
52072;SDS011;38074;51.232;6.826;2023-03-21T14:35:13;1.02;;;0.40;;
52072;SDS011;38074;51.232;6.826;2023-03-21T14:42:32;0.93;;;0.40;;
52072;SDS011;38074;51.232;6.826;2023-03-21T14:49:51;0.65;;;0.40;;
52072;SDS011;38074;51.232;6.826;2023-03-21T14:57:09;1.30;;;0.40;;
52072;SDS011;38074;51.232;6.826;2023-03-21T15:04:28;3.63;;;0.50;;
52072;SDS011;38074;51.232;6.826;2023-03-21T15:11:48;2.80;;;0.60;;
52072;SDS011;38074;51.232;6.826;2023-03-21T15:19:05;1.73;;;0.45;;
52072;SDS011;38074;51.232;6.826;2023-03-21T15:26:25;5.38;;;0.63;;
52072;SDS011;38074;51.232;6.826;2023-03-21T15:33:44;4.87;;;0.80;;
52072;SDS011;38074;51.232;6.826;2023-03-21T15:48:34;7.05;;;0.90;;
52072;SDS011;38074;51.232;6.826;2023-03-21T15:55:50;7.33;;;1.30;;
52072;SDS011;38074;51.232;6.826;2023-03-21T16:03:18;7.37;;;1.10;;
52072;SDS011;38074;51.232;6.826;2023-03-21T16:10:35;11.20;;;2.05;;
52072;SDS011;38074;51.232;6.826;2023-03-21T16:18:01;13.23;;;1.45;;
52072;SDS011;38074;51.232;6.826;2023-03-21T16:25:18;10.33;;;1.50;;
52072;SDS011;38074;51.232;6.826;2023-03-21T16:39:51;4.88;;;1.00;;
52072;SDS011;38074;51.232;6.826;2023-03-21T16:47:17;10.63;;;1.35;;
52072;SDS011;38074;51.232;6.826;2023-03-21T16:54:34;10.50;;;1.27;;
52072;SDS011;38074;51.232;6.826;2023-03-21T17:01:50;8.67;;;1.13;;
52072;SDS011;38074;51.232;6.826;2023-03-21T17:09:05;6.17;;;1.37;;
52072;SDS011;38074;51.232;6.826;2023-03-21T17:16:24;3.88;;;1.00;;
52072;SDS011;38074;51.232;6.826;2023-03-21T17:23:40;10.23;;;1.58;;
52072;SDS011;38074;51.232;6.826;2023-03-21T17:30:56;15.00;;;1.75;;
52072;SDS011;38074;51.232;6.826;2023-03-21T17:38:15;9.45;;;1.80;;
52072;SDS011;38074;51.232;6.826;2023-03-21T17:45:31;8.75;;;1.80;;
52072;SDS011;38074;51.232;6.826;2023-03-21T17:52:47;10.07;;;2.00;;
52072;SDS011;38074;51.232;6.826;2023-03-21T18:00:05;9.88;;;1.73;;
52072;SDS011;38074;51.232;6.826;2023-03-21T18:07:26;8.70;;;1.80;;
52072;SDS011;38074;51.232;6.826;2023-03-21T18:14:42;6.23;;;1.73;;
52072;SDS011;38074;51.232;6.826;2023-03-21T18:21:59;5.57;;;1.40;;
52072;SDS011;38074;51.232;6.826;2023-03-21T18:29:15;4.35;;;1.17;;
52072;SDS011;38074;51.232;6.826;2023-03-21T18:36:32;5.65;;;0.98;;
52072;SDS011;38074;51.232;6.826;2023-03-21T18:43:48;5.90;;;1.00;;
52072;SDS011;38074;51.232;6.826;2023-03-21T18:51:03;7.20;;;1.53;;
52072;SDS011;38074;51.232;6.826;2023-03-21T18:58:19;3.40;;;1.00;;
52072;SDS011;38074;51.232;6.826;2023-03-21T19:05:35;3.83;;;0.82;;
52072;SDS011;38074;51.232;6.826;2023-03-21T19:12:53;4.90;;;0.75;;
52072;SDS011;38074;51.232;6.826;2023-03-21T19:20:09;2.92;;;0.90;;
52072;SDS011;38074;51.232;6.826;2023-03-21T19:27:27;2.67;;;0.80;;
52072;SDS011;38074;51.232;6.826;2023-03-21T19:34:43;4.00;;;1.17;;
52072;SDS011;38074;51.232;6.826;2023-03-21T19:41:58;7.80;;;1.00;;
52072;SDS011;38074;51.232;6.826;2023-03-21T19:49:15;4.55;;;1.23;;
52072;SDS011;38074;51.232;6.826;2023-03-21T19:56:34;5.15;;;0.70;;
52072;SDS011;38074;51.232;6.826;2023-03-21T20:03:49;8.13;;;1.70;;
52072;SDS011;38074;51.232;6.826;2023-03-21T20:11:06;5.87;;;1.60;;
52072;SDS011;38074;51.232;6.826;2023-03-21T20:18:21;5.83;;;1.50;;
52072;SDS011;38074;51.232;6.826;2023-03-21T20:25:38;6.77;;;1.40;;
52072;SDS011;38074;51.232;6.826;2023-03-21T20:32:55;6.32;;;1.92;;
52072;SDS011;38074;51.232;6.826;2023-03-21T20:40:11;3.28;;;1.45;;
52072;SDS011;38074;51.232;6.826;2023-03-21T20:47:28;3.10;;;1.30;;
52072;SDS011;38074;51.232;6.826;2023-03-21T20:54:44;3.90;;;1.80;;
52072;SDS011;38074;51.232;6.826;2023-03-21T21:09:17;4.57;;;1.30;;
52072;SDS011;38074;51.232;6.826;2023-03-21T21:16:33;3.45;;;1.00;;
52072;SDS011;38074;51.232;6.826;2023-03-21T21:23:48;1.70;;;0.73;;
52072;SDS011;38074;51.232;6.826;2023-03-21T21:31:06;3.35;;;0.90;;
52072;SDS011;38074;51.232;6.826;2023-03-21T21:38:23;1.65;;;0.95;;
52072;SDS011;38074;51.232;6.826;2023-03-21T21:45:40;1.85;;;0.90;;
52072;SDS011;38074;51.232;6.826;2023-03-21T21:52:56;2.15;;;1.00;;
52072;SDS011;38074;51.232;6.826;2023-03-21T22:00:18;2.53;;;0.70;;
52072;SDS011;38074;51.232;6.826;2023-03-21T22:07:34;1.63;;;0.70;;
52072;SDS011;38074;51.232;6.826;2023-03-21T22:14:50;1.57;;;0.63;;
52072;SDS011;38074;51.232;6.826;2023-03-21T22:22:05;1.17;;;0.63;;
52072;SDS011;38074;51.232;6.826;2023-03-21T22:29:21;0.65;;;0.40;;
52072;SDS011;38074;51.232;6.826;2023-03-21T22:36:37;1.40;;;0.50;;
52072;SDS011;38074;51.232;6.826;2023-03-21T22:44:00;0.98;;;0.50;;
52072;SDS011;38074;51.232;6.826;2023-03-21T22:51:16;0.90;;;0.45;;
52072;SDS011;38074;51.232;6.826;2023-03-21T22:58:31;1.73;;;0.40;;
52072;SDS011;38074;51.232;6.826;2023-03-21T23:05:47;1.00;;;0.53;;
52072;SDS011;38074;51.232;6.826;2023-03-21T23:13:02;0.93;;;0.40;;
52072;SDS011;38074;51.232;6.826;2023-03-21T23:20:18;0.98;;;0.52;;
52072;SDS011;38074;51.232;6.826;2023-03-21T23:27:34;0.73;;;0.40;;
52072;SDS011;38074;51.232;6.826;2023-03-21T23:34:49;1.08;;;0.47;;
52072;SDS011;38074;51.232;6.826;2023-03-21T23:42:05;0.68;;;0.43;;
52072;SDS011;38074;51.232;6.826;2023-03-21T23:49:21;0.70;;;0.30;;
52072;SDS011;38074;51.232;6.826;2023-03-21T23:56:36;0.43;;;0.20;;
